sensor_id;sensor_type;location;lat;lon;timestamp;pressure;altitude;pressure_sealevel;temperature;humidity
75788;BME280;64406;50.024;14.492;2023-07-22T00:02:03;97718.47;;;14.30;100.00
75788;BME280;64406;50.024;14.492;2023-07-22T00:04:28;97721.19;;;14.30;100.00
75788;BME280;64406;50.024;14.492;2023-07-22T00:06:54;97721.00;;;14.18;100.00
75788;BME280;64406;50.024;14.492;2023-07-22T00:09:20;97715.72;;;14.12;100.00
75788;BME280;64406;50.024;14.492;2023-07-22T00:11:45;97707.09;;;14.02;100.00
75788;BME280;64406;50.024;14.492;2023-07-22T00:14:11;97719.66;;;13.98;100.00
75788;BME280;64406;50.024;14.492;2023-07-22T00:16:36;97713.53;;;13.83;100.00
75788;BME280;64406;50.024;14.492;2023-07-22T00:19:03;97708.78;;;13.80;100.00
75788;BME280;64406;50.024;14.492;2023-07-22T00:21:28;97723.91;;;13.81;100.00
75788;BME280;64406;50.024;14.492;2023-07-22T00:23:54;97719.19;;;13.65;100.00
75788;BME280;64406;50.024;14.492;2023-07-22T00:26:20;97721.53;;;13.57;100.00
75788;BME280;64406;50.024;14.492;2023-07-22T00:28:46;97726.16;;;13.57;100.00
75788;BME280;64406;50.024;14.492;2023-07-22T00:31:11;97723.69;;;13.47;100.00
75788;BME280;64406;50.024;14.492;2023-07-22T00:33:37;97721.75;;;13.39;100.00
75788;BME280;64406;50.024;14.492;2023-07-22T00:36:04;97721.88;;;13.33;100.00
75788;BME280;64406;50.024;14.492;2023-07-22T00:38:29;97724.41;;;13.30;100.00
75788;BME280;64406;50.024;14.492;2023-07-22T00:40:55;97728.34;;;13.24;100.00
75788;BME280;64406;50.024;14.492;2023-07-22T00:43:21;97728.44;;;13.19;100.00
75788;BME280;64406;50.024;14.492;2023-07-22T00:45:47;97728.53;;;13.14;100.00
75788;BME280;64406;50.024;14.492;2023-07-22T00:48:13;97730.88;;;13.06;100.00
75788;BME280;64406;50.024;14.492;2023-07-22T00:50:40;97725.91;;;13.00;100.00
75788;BME280;64406;50.024;14.492;2023-07-22T00:53:06;97742.44;;;12.98;100.00
75788;BME280;64406;50.024;14.492;2023-07-22T00:55:33;97736.13;;;13.03;100.00
75788;BME280;64406;50.024;14.492;2023-07-22T00:57:58;97733.16;;;12.91;100.00
75788;BME280;64406;50.024;14.492;2023-07-22T01:00:24;97730.44;;;12.91;100.00
75788;BME280;64406;50.024;14.492;2023-07-22T01:02:50;97727.16;;;12.80;100.00
75788;BME280;64406;50.024;14.492;2023-07-22T01:05:16;97734.31;;;12.76;100.00
75788;BME280;64406;50.024;14.492;2023-07-22T01:07:42;97733.78;;;12.74;100.00
75788;BME280;64406;50.024;14.492;2023-07-22T01:10:08;97731.91;;;12.74;100.00
75788;BME280;64406;50.024;14.492;2023-07-22T01:12:33;97733.00;;;12.73;100.00
75788;BME280;64406;50.024;14.492;2023-07-22T01:15:00;97740.13;;;12.69;100.00
75788;BME280;64406;50.024;14.492;2023-07-22T01:17:27;97746.13;;;12.66;100.00
75788;BME280;64406;50.024;14.492;2023-07-22T01:19:52;97752.72;;;12.60;100.00
75788;BME280;64406;50.024;14.492;2023-07-22T01:22:19;97732.34;;;12.54;100.00
75788;BME280;64406;50.024;14.492;2023-07-22T01:24:45;97744.44;;;12.57;100.00
75788;BME280;64406;50.024;14.492;2023-07-22T01:27:12;97744.25;;;12.53;100.00
75788;BME280;64406;50.024;14.492;2023-07-22T01:29:39;97741.78;;;12.43;100.00
75788;BME280;64406;50.024;14.492;2023-07-22T01:32:05;97741.56;;;12.39;100.00
75788;BME280;64406;50.024;14.492;2023-07-22T01:34:31;97743.69;;;12.42;100.00
75788;BME280;64406;50.024;14.492;2023-07-22T01:36:57;97747.19;;;12.43;100.00
75788;BME280;64406;50.024;14.492;2023-07-22T01:39:22;97748.56;;;12.40;100.00
75788;BME280;64406;50.024;14.492;2023-07-22T01:41:48;97739.66;;;12.40;100.00
75788;BME280;64406;50.024;14.492;2023-07-22T01:44:14;97739.19;;;12.24;100.00
75788;BME280;64406;50.024;14.492;2023-07-22T01:46:40;97746.69;;;12.27;100.00
75788;BME280;64406;50.024;14.492;2023-07-22T01:49:09;97746.41;;;12.29;100.00
75788;BME280;64406;50.024;14.492;2023-07-22T01:51:36;97736.78;;;12.22;100.00
75788;BME280;64406;50.024;14.492;2023-07-22T01:54:04;97730.59;;;12.22;100.00
75788;BME280;64406;50.024;14.492;2023-07-22T01:56:29;97736.59;;;12.19;100.00
75788;BME280;64406;50.024;14.492;2023-07-22T01:58:57;97735.28;;;12.16;100.00
75788;BME280;64406;50.024;14.492;2023-07-22T02:01:23;97741.19;;;12.18;100.00
75788;BME280;64406;50.024;14.492;2023-07-22T02:03:49;97739.59;;;12.17;100.00
75788;BME280;64406;50.024;14.492;2023-07-22T02:06:15;97748.78;;;12.16;100.00
75788;BME280;64406;50.024;14.492;2023-07-22T02:08:41;97760.31;;;12.22;100.00
75788;BME280;64406;50.024;14.492;2023-07-22T02:11:07;97751.50;;;12.16;100.00
75788;BME280;64406;50.024;14.492;2023-07-22T02:13:35;97746.28;;;12.06;100.00
75788;BME280;64406;50.024;14.492;2023-07-22T02:16:01;97758.09;;;12.10;100.00
75788;BME280;64406;50.024;14.492;2023-07-22T02:18:27;97760.09;;;12.05;100.00
75788;BME280;64406;50.024;14.492;2023-07-22T02:20:54;97759.78;;;12.06;100.00
75788;BME280;64406;50.024;14.492;2023-07-22T02:23:20;97750.28;;;11.95;100.00
75788;BME280;64406;50.024;14.492;2023-07-22T02:25:53;97757.47;;;12.00;100.00
75788;BME280;64406;50.024;14.492;2023-07-22T02:28:20;97762.16;;;11.94;100.00
75788;BME280;64406;50.024;14.492;2023-07-22T02:30:47;97757.78;;;11.98;100.00
75788;BME280;64406;50.024;14.492;2023-07-22T02:33:14;97760.09;;;11.91;100.00
75788;BME280;64406;50.024;14.492;2023-07-22T02:35:42;97770.47;;;11.97;100.00
75788;BME280;64406;50.024;14.492;2023-07-22T02:38:08;97759.06;;;11.87;100.00
75788;BME280;64406;50.024;14.492;2023-07-22T02:40:37;97774.16;;;11.88;100.00
75788;BME280;64406;50.024;14.492;2023-07-22T02:43:03;97776.78;;;11.93;100.00
75788;BME280;64406;50.024;14.492;2023-07-22T02:45:29;97779.97;;;11.95;100.00
75788;BME280;64406;50.024;14.492;2023-07-22T02:47:55;97778.75;;;11.87;100.00
75788;BME280;64406;50.024;14.492;2023-07-22T02:50:21;97782.63;;;11.81;100.00
75788;BME280;64406;50.024;14.492;2023-07-22T02:52:47;97774.31;;;11.78;100.00
75788;BME280;64406;50.024;14.492;2023-07-22T02:55:14;97794.31;;;11.77;100.00
75788;BME280;64406;50.024;14.492;2023-07-22T02:57:42;97788.69;;;11.73;100.00
75788;BME280;64406;50.024;14.492;2023-07-22T03:00:08;97792.41;;;11.77;100.00
75788;BME280;64406;50.024;14.492;2023-07-22T03:02:38;97801.31;;;11.78;100.00
75788;BME280;64406;50.024;14.492;2023-07-22T03:05:05;97807.50;;;11.78;100.00
75788;BME280;64406;50.024;14.492;2023-07-22T03:07:37;97793.09;;;11.69;100.00
75788;BME280;64406;50.024;14.492;2023-07-22T03:10:04;97810.88;;;11.70;100.00
75788;BME280;64406;50.024;14.492;2023-07-22T03:12:32;97803.78;;;11.74;100.00
75788;BME280;64406;50.024;14.492;2023-07-22T03:14:57;97801.78;;;11.66;100.00
75788;BME280;64406;50.024;14.492;2023-07-22T03:17:23;97788.66;;;11.59;100.00
75788;BME280;64406;50.024;14.492;2023-07-22T03:19:48;97797.06;;;11.58;100.00
75788;BME280;64406;50.024;14.492;2023-07-22T03:22:15;97806.59;;;11.69;100.00
75788;BME280;64406;50.024;14.492;2023-07-22T03:24:45;97798.16;;;11.57;100.00
75788;BME280;64406;50.024;14.492;2023-07-22T03:27:11;97801.66;;;11.57;100.00
75788;BME280;64406;50.024;14.492;2023-07-22T03:29:37;97822.06;;;11.63;100.00
75788;BME280;64406;50.024;14.492;2023-07-22T03:32:04;97823.16;;;11.62;100.00
75788;BME280;64406;50.024;14.492;2023-07-22T03:34:31;97817.31;;;11.55;100.00
75788;BME280;64406;50.024;14.492;2023-07-22T03:36:57;97809.81;;;11.52;100.00
75788;BME280;64406;50.024;14.492;2023-07-22T03:39:24;97832.69;;;11.55;100.00
75788;BME280;64406;50.024;14.492;2023-07-22T03:41:50;97832.13;;;11.58;100.00
75788;BME280;64406;50.024;14.492;2023-07-22T03:44:16;97833.81;;;11.54;100.00
75788;BME280;64406;50.024;14.492;2023-07-22T03:46:42;97833.06;;;11.48;100.00
75788;BME280;64406;50.024;14.492;2023-07-22T03:49:07;97835.06;;;11.42;100.00
75788;BME280;64406;50.024;14.492;2023-07-22T03:51:33;97844.97;;;11.47;100.00
75788;BME280;64406;50.024;14.492;2023-07-22T03:53:59;97842.78;;;11.49;100.00
75788;BME280;64406;50.024;14.492;2023-07-22T03:56:25;97839.38;;;11.43;100.00
75788;BME280;64406;50.024;14.492;2023-07-22T03:58:51;97833.69;;;11.45;100.00
75788;BME280;64406;50.024;14.492;2023-07-22T04:01:17;97834.72;;;11.49;100.00
75788;BME280;64406;50.024;14.492;2023-07-22T04:03:43;97839.00;;;11.50;100.00
75788;BME280;64406;50.024;14.492;2023-07-22T04:06:09;97844.94;;;11.66;100.00
75788;BME280;64406;50.024;14.492;2023-07-22T04:08:34;97852.66;;;11.73;100.00
75788;BME280;64406;50.024;14.492;2023-07-22T04:11:00;97828.97;;;11.69;100.00
75788;BME280;64406;50.024;14.492;2023-07-22T04:13:26;97840.03;;;11.87;100.00
75788;BME280;64406;50.024;14.492;2023-07-22T04:15:53;97848.34;;;11.90;100.00
75788;BME280;64406;50.024;14.492;2023-07-22T04:18:20;97851.53;;;11.92;100.00
75788;BME280;64406;50.024;14.492;2023-07-22T04:20:46;97848.28;;;11.95;100.00
75788;BME280;64406;50.024;14.492;2023-07-22T04:23:15;97848.28;;;11.95;100.00
75788;BME280;64406;50.024;14.492;2023-07-22T04:25:44;97864.66;;;11.99;100.00
75788;BME280;64406;50.024;14.492;2023-07-22T04:28:10;97859.88;;;11.96;100.00
75788;BME280;64406;50.024;14.492;2023-07-22T04:30:37;97861.16;;;11.98;100.00
75788;BME280;64406;50.024;14.492;2023-07-22T04:33:03;97865.94;;;12.02;100.00
75788;BME280;64406;50.024;14.492;2023-07-22T04:35:38;97846.06;;;11.97;100.00
75788;BME280;64406;50.024;14.492;2023-07-22T04:38:06;97863.56;;;12.00;100.00
75788;BME280;64406;50.024;14.492;2023-07-22T04:40:32;97867.16;;;11.95;100.00
75788;BME280;64406;50.024;14.492;2023-07-22T04:42:57;97864.84;;;11.89;100.00
75788;BME280;64406;50.024;14.492;2023-07-22T04:45:23;97879.03;;;11.94;100.00
75788;BME280;64406;50.024;14.492;2023-07-22T04:47:50;97867.75;;;11.92;100.00
75788;BME280;64406;50.024;14.492;2023-07-22T04:50:16;97884.34;;;12.00;100.00
75788;BME280;64406;50.024;14.492;2023-07-22T04:52:47;97891.66;;;11.99;100.00
75788;BME280;64406;50.024;14.492;2023-07-22T04:55:14;97889.38;;;12.06;100.00
75788;BME280;64406;50.024;14.492;2023-07-22T04:57:40;97890.69;;;12.09;100.00
75788;BME280;64406;50.024;14.492;2023-07-22T05:00:16;97875.88;;;12.06;100.00
75788;BME280;64406;50.024;14.492;2023-07-22T05:02:42;97885.16;;;12.00;100.00
75788;BME280;64406;50.024;14.492;2023-07-22T05:05:12;97899.88;;;12.08;100.00
75788;BME280;64406;50.024;14.492;2023-07-22T05:07:38;97911.59;;;12.17;100.00
75788;BME280;64406;50.024;14.492;2023-07-22T05:10:05;97902.81;;;12.25;100.00
75788;BME280;64406;50.024;14.492;2023-07-22T05:12:34;97900.53;;;12.32;100.00
75788;BME280;64406;50.024;14.492;2023-07-22T05:15:00;97894.44;;;12.40;100.00
75788;BME280;64406;50.024;14.492;2023-07-22T05:17:26;97898.38;;;12.48;100.00
75788;BME280;64406;50.024;14.492;2023-07-22T05:19:54;97901.16;;;12.70;100.00
75788;BME280;64406;50.024;14.492;2023-07-22T05:22:20;97906.75;;;12.74;99.06
75788;BME280;64406;50.024;14.492;2023-07-22T05:24:46;97908.16;;;12.71;99.39
75788;BME280;64406;50.024;14.492;2023-07-22T05:27:11;97900.69;;;12.82;99.20
75788;BME280;64406;50.024;14.492;2023-07-22T05:29:37;97909.88;;;12.95;98.58
75788;BME280;64406;50.024;14.492;2023-07-22T05:32:03;97909.34;;;12.93;97.85
75788;BME280;64406;50.024;14.492;2023-07-22T05:34:29;97904.75;;;12.93;97.95
75788;BME280;64406;50.024;14.492;2023-07-22T05:36:54;97910.06;;;12.85;98.65
75788;BME280;64406;50.024;14.492;2023-07-22T05:39:20;97910.69;;;12.82;98.74
75788;BME280;64406;50.024;14.492;2023-07-22T05:41:46;97897.84;;;12.73;99.18
75788;BME280;64406;50.024;14.492;2023-07-22T05:44:11;97909.59;;;12.83;98.60
75788;BME280;64406;50.024;14.492;2023-07-22T05:46:37;97916.88;;;12.96;98.48
75788;BME280;64406;50.024;14.492;2023-07-22T05:49:04;97915.66;;;13.16;97.00
75788;BME280;64406;50.024;14.492;2023-07-22T05:51:29;97904.06;;;13.29;95.76
75788;BME280;64406;50.024;14.492;2023-07-22T05:53:55;97910.88;;;13.63;94.76
75788;BME280;64406;50.024;14.492;2023-07-22T05:56:21;97935.19;;;13.76;94.20
75788;BME280;64406;50.024;14.492;2023-07-22T05:58:46;97932.84;;;13.83;92.92
75788;BME280;64406;50.024;14.492;2023-07-22T06:01:12;97922.28;;;13.96;92.37
75788;BME280;64406;50.024;14.492;2023-07-22T06:03:38;97933.41;;;13.94;91.29
75788;BME280;64406;50.024;14.492;2023-07-22T06:06:03;97938.03;;;14.16;92.13
75788;BME280;64406;50.024;14.492;2023-07-22T06:08:29;97931.69;;;14.21;90.73
75788;BME280;64406;50.024;14.492;2023-07-22T06:10:56;97932.03;;;14.28;90.39
75788;BME280;64406;50.024;14.492;2023-07-22T06:13:22;97927.06;;;14.21;89.70
75788;BME280;64406;50.024;14.492;2023-07-22T06:15:47;97923.03;;;14.19;89.68
75788;BME280;64406;50.024;14.492;2023-07-22T06:18:13;97930.28;;;14.32;90.59
75788;BME280;64406;50.024;14.492;2023-07-22T06:20:39;97926.00;;;14.31;90.17
75788;BME280;64406;50.024;14.492;2023-07-22T06:23:04;97929.78;;;14.21;90.92
75788;BME280;64406;50.024;14.492;2023-07-22T06:25:30;97933.88;;;14.19;91.28
75788;BME280;64406;50.024;14.492;2023-07-22T06:27:56;97939.69;;;14.03;90.34
75788;BME280;64406;50.024;14.492;2023-07-22T06:30:22;97930.19;;;13.92;91.55
75788;BME280;64406;50.024;14.492;2023-07-22T06:32:48;97934.75;;;13.83;92.39
75788;BME280;64406;50.024;14.492;2023-07-22T06:35:13;97936.13;;;13.94;92.24
75788;BME280;64406;50.024;14.492;2023-07-22T06:37:39;97953.78;;;13.92;91.76
75788;BME280;64406;50.024;14.492;2023-07-22T06:40:06;97940.31;;;14.00;91.76
75788;BME280;64406;50.024;14.492;2023-07-22T06:42:32;97946.91;;;14.08;91.97
75788;BME280;64406;50.024;14.492;2023-07-22T06:44:58;97951.38;;;14.12;90.94
75788;BME280;64406;50.024;14.492;2023-07-22T06:47:24;97946.34;;;14.20;89.15
75788;BME280;64406;50.024;14.492;2023-07-22T06:49:49;97952.78;;;14.32;88.43
75788;BME280;64406;50.024;14.492;2023-07-22T06:52:16;97953.16;;;14.39;88.38
75788;BME280;64406;50.024;14.492;2023-07-22T06:54:42;97952.75;;;14.46;88.55
75788;BME280;64406;50.024;14.492;2023-07-22T06:57:09;97946.72;;;14.58;89.04
75788;BME280;64406;50.024;14.492;2023-07-22T06:59:35;97954.06;;;14.57;86.99
75788;BME280;64406;50.024;14.492;2023-07-22T07:02:02;97952.72;;;14.77;86.51
75788;BME280;64406;50.024;14.492;2023-07-22T07:04:28;97952.00;;;14.94;87.01
75788;BME280;64406;50.024;14.492;2023-07-22T07:06:54;97951.94;;;14.85;85.30
75788;BME280;64406;50.024;14.492;2023-07-22T07:09:19;97959.50;;;14.97;83.34
75788;BME280;64406;50.024;14.492;2023-07-22T07:11:45;97957.81;;;15.18;83.46
75788;BME280;64406;50.024;14.492;2023-07-22T07:14:11;97950.19;;;15.38;82.44
75788;BME280;64406;50.024;14.492;2023-07-22T07:16:37;97958.41;;;15.64;78.70
75788;BME280;64406;50.024;14.492;2023-07-22T07:19:02;97974.56;;;16.12;79.12
75788;BME280;64406;50.024;14.492;2023-07-22T07:21:28;97966.59;;;16.07;78.38
75788;BME280;64406;50.024;14.492;2023-07-22T07:23:54;97964.03;;;16.02;79.08
75788;BME280;64406;50.024;14.492;2023-07-22T07:26:21;97962.50;;;16.56;76.50
75788;BME280;64406;50.024;14.492;2023-07-22T07:28:48;97969.47;;;16.83;74.79
75788;BME280;64406;50.024;14.492;2023-07-22T07:31:14;97968.84;;;16.87;72.49
75788;BME280;64406;50.024;14.492;2023-07-22T07:33:39;97978.31;;;16.63;73.63
75788;BME280;64406;50.024;14.492;2023-07-22T07:36:05;97990.22;;;16.33;71.82
75788;BME280;64406;50.024;14.492;2023-07-22T07:38:32;97986.06;;;16.09;71.46
75788;BME280;64406;50.024;14.492;2023-07-22T07:41:03;97976.13;;;16.30;73.45
75788;BME280;64406;50.024;14.492;2023-07-22T07:43:28;97979.22;;;16.12;71.24
75788;BME280;64406;50.024;14.492;2023-07-22T07:48:38;97974.41;;;16.17;72.00
75788;BME280;64406;50.024;14.492;2023-07-22T07:51:06;97977.75;;;16.31;73.13
75788;BME280;64406;50.024;14.492;2023-07-22T07:53:31;97978.38;;;16.46;71.67
75788;BME280;64406;50.024;14.492;2023-07-22T07:55:57;97984.75;;;16.58;69.94
75788;BME280;64406;50.024;14.492;2023-07-22T07:58:22;97980.69;;;16.82;71.52
75788;BME280;64406;50.024;14.492;2023-07-22T08:00:48;97970.13;;;16.80;66.23
75788;BME280;64406;50.024;14.492;2023-07-22T08:03:14;97974.69;;;17.06;67.85
75788;BME280;64406;50.024;14.492;2023-07-22T08:05:40;97975.19;;;16.99;65.23
75788;BME280;64406;50.024;14.492;2023-07-22T08:08:05;97964.81;;;17.31;64.09
75788;BME280;64406;50.024;14.492;2023-07-22T08:10:31;97962.59;;;17.75;63.76
75788;BME280;64406;50.024;14.492;2023-07-22T08:12:57;97966.56;;;17.27;64.07
75788;BME280;64406;50.024;14.492;2023-07-22T08:15:23;97966.25;;;17.28;64.89
75788;BME280;64406;50.024;14.492;2023-07-22T08:17:48;97971.50;;;17.33;64.40
75788;BME280;64406;50.024;14.492;2023-07-22T08:20:14;97964.22;;;17.46;64.85
75788;BME280;64406;50.024;14.492;2023-07-22T08:22:40;97968.44;;;17.64;64.15
75788;BME280;64406;50.024;14.492;2023-07-22T08:25:06;97964.69;;;17.69;66.10
75788;BME280;64406;50.024;14.492;2023-07-22T08:27:32;97969.00;;;17.79;61.48
75788;BME280;64406;50.024;14.492;2023-07-22T08:29:58;97977.25;;;17.61;60.06
75788;BME280;64406;50.024;14.492;2023-07-22T08:32:24;97971.50;;;18.26;59.86
75788;BME280;64406;50.024;14.492;2023-07-22T08:34:49;97973.81;;;17.52;59.83
75788;BME280;64406;50.024;14.492;2023-07-22T08:37:15;97969.09;;;17.61;62.07
75788;BME280;64406;50.024;14.492;2023-07-22T08:39:41;97966.88;;;17.84;62.65
75788;BME280;64406;50.024;14.492;2023-07-22T08:42:07;97956.50;;;17.78;61.98
75788;BME280;64406;50.024;14.492;2023-07-22T08:44:37;97967.00;;;17.88;60.24
75788;BME280;64406;50.024;14.492;2023-07-22T08:47:04;97969.94;;;17.83;60.35
75788;BME280;64406;50.024;14.492;2023-07-22T08:49:32;97983.59;;;17.74;59.28
75788;BME280;64406;50.024;14.492;2023-07-22T08:51:59;97968.25;;;17.70;57.00
75788;BME280;64406;50.024;14.492;2023-07-22T08:54:26;97988.53;;;17.81;56.85
75788;BME280;64406;50.024;14.492;2023-07-22T08:56:53;97971.13;;;17.94;59.77
75788;BME280;64406;50.024;14.492;2023-07-22T08:59:19;97974.91;;;18.02;57.77
75788;BME280;64406;50.024;14.492;2023-07-22T09:01:47;97979.53;;;18.22;56.90
75788;BME280;64406;50.024;14.492;2023-07-22T09:04:13;97983.41;;;18.54;56.00
75788;BME280;64406;50.024;14.492;2023-07-22T09:06:41;97977.34;;;18.82;55.78
75788;BME280;64406;50.024;14.492;2023-07-22T09:09:08;97980.19;;;18.73;55.99
75788;BME280;64406;50.024;14.492;2023-07-22T09:11:35;97977.81;;;18.17;58.41
75788;BME280;64406;50.024;14.492;2023-07-22T09:14:02;97978.75;;;18.55;59.35
75788;BME280;64406;50.024;14.492;2023-07-22T09:16:30;97988.41;;;18.52;58.75
75788;BME280;64406;50.024;14.492;2023-07-22T09:18:59;97981.06;;;18.65;58.25
75788;BME280;64406;50.024;14.492;2023-07-22T09:21:24;97979.03;;;18.41;56.26
75788;BME280;64406;50.024;14.492;2023-07-22T09:23:50;97977.19;;;18.66;55.20
75788;BME280;64406;50.024;14.492;2023-07-22T09:26:17;97972.72;;;18.94;53.59
75788;BME280;64406;50.024;14.492;2023-07-22T09:28:48;97975.56;;;18.86;54.95
75788;BME280;64406;50.024;14.492;2023-07-22T09:31:14;97980.03;;;19.15;53.05
75788;BME280;64406;50.024;14.492;2023-07-22T09:33:40;97981.28;;;19.17;51.57
75788;BME280;64406;50.024;14.492;2023-07-22T09:36:05;97977.03;;;18.83;51.63
75788;BME280;64406;50.024;14.492;2023-07-22T09:38:31;97977.63;;;19.38;50.93
75788;BME280;64406;50.024;14.492;2023-07-22T09:40:57;97967.94;;;19.77;50.56
75788;BME280;64406;50.024;14.492;2023-07-22T09:43:23;97969.31;;;19.59;50.39
75788;BME280;64406;50.024;14.492;2023-07-22T09:45:49;97969.03;;;20.28;50.26
75788;BME280;64406;50.024;14.492;2023-07-22T09:48:15;97975.03;;;20.34;48.66
75788;BME280;64406;50.024;14.492;2023-07-22T09:50:40;97970.53;;;19.86;49.35
75788;BME280;64406;50.024;14.492;2023-07-22T09:53:06;97970.06;;;19.83;51.20
75788;BME280;64406;50.024;14.492;2023-07-22T09:55:33;97970.72;;;19.93;49.71
75788;BME280;64406;50.024;14.492;2023-07-22T09:58:03;97974.44;;;19.36;52.88
75788;BME280;64406;50.024;14.492;2023-07-22T10:00:32;97973.19;;;19.09;51.32
75788;BME280;64406;50.024;14.492;2023-07-22T10:03:00;97966.13;;;19.08;53.31
75788;BME280;64406;50.024;14.492;2023-07-22T10:05:28;97971.72;;;18.66;52.93
75788;BME280;64406;50.024;14.492;2023-07-22T10:07:58;97990.72;;;18.62;53.28
75788;BME280;64406;50.024;14.492;2023-07-22T10:10:26;97986.06;;;18.63;54.05
75788;BME280;64406;50.024;14.492;2023-07-22T10:12:56;97980.66;;;18.54;54.59
75788;BME280;64406;50.024;14.492;2023-07-22T10:15:25;97979.59;;;18.67;54.10
75788;BME280;64406;50.024;14.492;2023-07-22T10:17:51;97975.44;;;18.94;53.93
75788;BME280;64406;50.024;14.492;2023-07-22T10:20:16;97974.00;;;19.09;53.16
75788;BME280;64406;50.024;14.492;2023-07-22T10:22:46;97976.56;;;18.93;52.87
75788;BME280;64406;50.024;14.492;2023-07-22T10:25:17;97971.25;;;19.09;53.37
75788;BME280;64406;50.024;14.492;2023-07-22T10:27:43;97970.56;;;19.00;51.20
75788;BME280;64406;50.024;14.492;2023-07-22T10:30:10;97965.97;;;18.80;52.62
75788;BME280;64406;50.024;14.492;2023-07-22T10:32:38;97976.69;;;18.85;52.89
75788;BME280;64406;50.024;14.492;2023-07-22T10:35:07;97966.69;;;18.89;52.35
75788;BME280;64406;50.024;14.492;2023-07-22T10:37:36;97967.03;;;19.12;50.99
75788;BME280;64406;50.024;14.492;2023-07-22T10:40:20;97958.16;;;20.04;49.71
75788;BME280;64406;50.024;14.492;2023-07-22T10:43:05;97962.25;;;20.10;49.06
75788;BME280;64406;50.024;14.492;2023-07-22T10:45:40;97957.78;;;20.46;48.53
75788;BME280;64406;50.024;14.492;2023-07-22T10:48:11;97951.63;;;21.43;46.36
75788;BME280;64406;50.024;14.492;2023-07-22T10:53:04;97948.28;;;20.55;46.60
75788;BME280;64406;50.024;14.492;2023-07-22T10:55:29;97947.03;;;21.48;44.13
75788;BME280;64406;50.024;14.492;2023-07-22T10:57:55;97951.84;;;21.35;46.68
75788;BME280;64406;50.024;14.492;2023-07-22T11:00:31;97960.03;;;21.19;43.98
75788;BME280;64406;50.024;14.492;2023-07-22T11:03:14;97956.53;;;21.34;42.61
75788;BME280;64406;50.024;14.492;2023-07-22T11:05:48;97942.22;;;22.15;44.36
75788;BME280;64406;50.024;14.492;2023-07-22T11:08:15;97947.75;;;21.80;42.11
75788;BME280;64406;50.024;14.492;2023-07-22T11:10:52;97937.47;;;22.54;40.03
75788;BME280;64406;50.024;14.492;2023-07-22T11:13:27;97938.53;;;23.15;41.16
75788;BME280;64406;50.024;14.492;2023-07-22T11:15:52;97936.91;;;22.87;40.59
75788;BME280;64406;50.024;14.492;2023-07-22T11:18:18;97954.91;;;22.85;40.16
75788;BME280;64406;50.024;14.492;2023-07-22T11:20:43;97941.50;;;21.63;40.92
75788;BME280;64406;50.024;14.492;2023-07-22T11:23:09;97943.97;;;21.68;41.04
75788;BME280;64406;50.024;14.492;2023-07-22T11:25:36;97953.06;;;21.06;42.34
75788;BME280;64406;50.024;14.492;2023-07-22T11:28:03;97946.97;;;20.97;43.06
75788;BME280;64406;50.024;14.492;2023-07-22T11:30:31;97945.91;;;20.85;43.18
75788;BME280;64406;50.024;14.492;2023-07-22T11:32:58;97947.97;;;20.45;42.16
75788;BME280;64406;50.024;14.492;2023-07-22T11:35:24;97953.94;;;20.06;39.96
75788;BME280;64406;50.024;14.492;2023-07-22T11:38:00;97957.56;;;20.10;39.99
75788;BME280;64406;50.024;14.492;2023-07-22T11:40:33;97950.41;;;20.06;39.93
75788;BME280;64406;50.024;14.492;2023-07-22T11:42:59;97948.78;;;20.17;38.22
75788;BME280;64406;50.024;14.492;2023-07-22T11:45:28;97936.19;;;20.00;39.00
75788;BME280;64406;50.024;14.492;2023-07-22T11:47:54;97942.22;;;20.34;38.12
75788;BME280;64406;50.024;14.492;2023-07-22T11:50:33;97941.13;;;20.38;36.75
75788;BME280;64406;50.024;14.492;2023-07-22T11:52:59;97937.47;;;20.47;36.32
75788;BME280;64406;50.024;14.492;2023-07-22T11:55:25;97944.66;;;20.23;35.50
75788;BME280;64406;50.024;14.492;2023-07-22T11:57:54;97934.06;;;20.66;37.06
75788;BME280;64406;50.024;14.492;2023-07-22T12:00:20;97916.16;;;20.68;35.09
75788;BME280;64406;50.024;14.492;2023-07-22T12:02:46;97921.25;;;21.33;34.63
75788;BME280;64406;50.024;14.492;2023-07-22T12:05:20;97928.31;;;21.18;34.20
75788;BME280;64406;50.024;14.492;2023-07-22T12:07:46;97936.47;;;20.83;35.08
75788;BME280;64406;50.024;14.492;2023-07-22T12:10:12;97928.69;;;21.01;36.08
75788;BME280;64406;50.024;14.492;2023-07-22T12:12:45;97913.50;;;21.54;36.68
75788;BME280;64406;50.024;14.492;2023-07-22T12:15:19;97917.94;;;21.97;36.32
75788;BME280;64406;50.024;14.492;2023-07-22T12:17:59;97919.88;;;21.97;35.19
75788;BME280;64406;50.024;14.492;2023-07-22T12:20:42;97920.56;;;22.10;35.19
75788;BME280;64406;50.024;14.492;2023-07-22T12:23:08;97909.69;;;21.78;36.20
75788;BME280;64406;50.024;14.492;2023-07-22T12:25:34;97912.16;;;22.03;36.80
75788;BME280;64406;50.024;14.492;2023-07-22T12:28:00;97915.47;;;21.54;36.71
75788;BME280;64406;50.024;14.492;2023-07-22T12:30:25;97913.63;;;21.42;38.07
75788;BME280;64406;50.024;14.492;2023-07-22T12:32:53;97913.69;;;21.45;38.16
75788;BME280;64406;50.024;14.492;2023-07-22T12:35:19;97919.59;;;20.97;38.15
75788;BME280;64406;50.024;14.492;2023-07-22T12:37:45;97923.47;;;20.96;37.43
75788;BME280;64406;50.024;14.492;2023-07-22T12:40:10;97913.09;;;21.71;38.23
75788;BME280;64406;50.024;14.492;2023-07-22T12:42:37;97906.44;;;21.02;36.92
75788;BME280;64406;50.024;14.492;2023-07-22T12:45:04;97914.19;;;21.86;36.81
75788;BME280;64406;50.024;14.492;2023-07-22T12:47:30;97919.47;;;21.40;36.19
75788;BME280;64406;50.024;14.492;2023-07-22T12:49:55;97908.94;;;21.42;34.04